sensor_id;sensor_type;location;lat;lon;timestamp;pressure;altitude;pressure_sealevel;temperature
25985;BMP280;66753;53.848;10.658;2023-04-10T00:07:13;102513.06;;;6.32
25985;BMP280;66753;53.848;10.658;2023-04-10T00:22:14;102494.00;;;6.10
25985;BMP280;66753;53.848;10.658;2023-04-10T00:37:14;102474.41;;;5.86
25985;BMP280;66753;53.848;10.658;2023-04-10T00:52:15;102463.53;;;5.72
25985;BMP280;66753;53.848;10.658;2023-04-10T01:22:22;102458.31;;;5.36
25985;BMP280;66753;53.848;10.658;2023-04-10T01:37:27;102448.72;;;5.20
25985;BMP280;66753;53.848;10.658;2023-04-10T01:52:30;102438.63;;;5.07
25985;BMP280;66753;53.848;10.658;2023-04-10T02:22:42;102405.91;;;4.93
25985;BMP280;66753;53.848;10.658;2023-04-10T02:37:43;102395.03;;;5.11
25985;BMP280;66753;53.848;10.658;2023-04-10T02:52:45;102404.09;;;5.30
25985;BMP280;66753;53.848;10.658;2023-04-10T03:07:46;102398.41;;;5.43
25985;BMP280;66753;53.848;10.658;2023-04-10T03:22:46;102376.34;;;5.49
25985;BMP280;66753;53.848;10.658;2023-04-10T03:37:47;102349.97;;;5.39
25985;BMP280;66753;53.848;10.658;2023-04-10T03:52:47;102352.59;;;5.39
25985;BMP280;66753;53.848;10.658;2023-04-10T04:07:48;102361.06;;;5.46
25985;BMP280;66753;53.848;10.658;2023-04-10T04:22:49;102359.50;;;5.50
25985;BMP280;66753;53.848;10.658;2023-04-10T04:37:49;102367.50;;;5.65
25985;BMP280;66753;53.848;10.658;2023-04-10T04:52:50;102367.03;;;5.78
25985;BMP280;66753;53.848;10.658;2023-04-10T05:07:51;102378.16;;;6.05
25985;BMP280;66753;53.848;10.658;2023-04-10T05:22:51;102388.22;;;6.33
25985;BMP280;66753;53.848;10.658;2023-04-10T05:37:52;102409.31;;;7.13
25985;BMP280;66753;53.848;10.658;2023-04-10T05:52:53;102410.91;;;7.93
25985;BMP280;66753;53.848;10.658;2023-04-10T06:07:53;102408.59;;;8.63
25985;BMP280;66753;53.848;10.658;2023-04-10T06:22:54;102421.91;;;9.63
25985;BMP280;66753;53.848;10.658;2023-04-10T06:37:54;102420.22;;;10.73
25985;BMP280;66753;53.848;10.658;2023-04-10T06:52:55;102387.22;;;11.06
25985;BMP280;66753;53.848;10.658;2023-04-10T07:07:58;102381.75;;;11.65
25985;BMP280;66753;53.848;10.658;2023-04-10T07:22:59;102382.97;;;12.16
25985;BMP280;66753;53.848;10.658;2023-04-10T07:38:00;102366.75;;;12.57
25985;BMP280;66753;53.848;10.658;2023-04-10T07:53:00;102340.59;;;13.06
25985;BMP280;66753;53.848;10.658;2023-04-10T08:08:06;102340.31;;;13.59
25985;BMP280;66753;53.848;10.658;2023-04-10T08:23:07;102325.19;;;14.43
25985;BMP280;66753;53.848;10.658;2023-04-10T08:38:07;102318.88;;;15.38
25985;BMP280;66753;53.848;10.658;2023-04-10T08:53:10;102299.69;;;16.13
25985;BMP280;66753;53.848;10.658;2023-04-10T09:08:13;102285.25;;;16.93
25985;BMP280;66753;53.848;10.658;2023-04-10T09:23:20;102259.97;;;17.64
25985;BMP280;66753;53.848;10.658;2023-04-10T09:38:21;102245.31;;;18.27
25985;BMP280;66753;53.848;10.658;2023-04-10T09:53:21;102211.63;;;18.49
25985;BMP280;66753;53.848;10.658;2023-04-10T10:08:22;102153.25;;;19.10
25985;BMP280;66753;53.848;10.658;2023-04-10T10:23:23;102128.31;;;19.64
25985;BMP280;66753;53.848;10.658;2023-04-10T10:38:26;102076.94;;;19.76
25985;BMP280;66753;53.848;10.658;2023-04-10T11:23:31;101955.00;;;20.66
25985;BMP280;66753;53.848;10.658;2023-04-10T11:38:33;101905.41;;;20.74
25985;BMP280;66753;53.848;10.658;2023-04-10T11:53:33;101883.56;;;21.04
25985;BMP280;66753;53.848;10.658;2023-04-10T12:08:36;101864.78;;;21.56
25985;BMP280;66753;53.848;10.658;2023-04-10T12:23:37;101849.38;;;21.85
25985;BMP280;66753;53.848;10.658;2023-04-10T12:38:42;101820.78;;;21.94
25985;BMP280;66753;53.848;10.658;2023-04-10T12:53:45;101789.88;;;22.09
25985;BMP280;66753;53.848;10.658;2023-04-10T13:08:45;101774.81;;;22.19
25985;BMP280;66753;53.848;10.658;2023-04-10T13:23:46;101748.75;;;22.60
25985;BMP280;66753;53.848;10.658;2023-04-10T13:38:46;101721.53;;;22.84
25985;BMP280;66753;53.848;10.658;2023-04-10T13:53:47;101675.25;;;22.71
25985;BMP280;66753;53.848;10.658;2023-04-10T14:08:47;101654.28;;;22.86
25985;BMP280;66753;53.848;10.658;2023-04-10T14:23:48;101611.44;;;22.34
25985;BMP280;66753;53.848;10.658;2023-04-10T14:38:48;101569.81;;;22.24
25985;BMP280;66753;53.848;10.658;2023-04-10T14:53:48;101515.50;;;21.50
25985;BMP280;66753;53.848;10.658;2023-04-10T15:08:49;101486.34;;;21.21
25985;BMP280;66753;53.848;10.658;2023-04-10T15:23:49;101459.75;;;21.26
25985;BMP280;66753;53.848;10.658;2023-04-10T15:38:50;101432.81;;;21.12
25985;BMP280;66753;53.848;10.658;2023-04-10T15:53:50;101378.00;;;20.43
25985;BMP280;66753;53.848;10.658;2023-04-10T16:08:51;101341.53;;;19.86
25985;BMP280;66753;53.848;10.658;2023-04-10T16:23:52;101301.94;;;19.49
25985;BMP280;66753;53.848;10.658;2023-04-10T16:38:52;101278.44;;;19.21
25985;BMP280;66753;53.848;10.658;2023-04-10T16:53:53;101254.91;;;18.80
25985;BMP280;66753;53.848;10.658;2023-04-10T17:08:53;101209.47;;;18.29
25985;BMP280;66753;53.848;10.658;2023-04-10T17:23:53;101186.53;;;17.78
25985;BMP280;66753;53.848;10.658;2023-04-10T17:38:54;101152.13;;;17.33
25985;BMP280;66753;53.848;10.658;2023-04-10T17:53:54;101136.88;;;16.97
25985;BMP280;66753;53.848;10.658;2023-04-10T18:08:55;101113.94;;;16.63
25985;BMP280;66753;53.848;10.658;2023-04-10T18:23:56;101116.69;;;16.37
25985;BMP280;66753;53.848;10.658;2023-04-10T18:38:56;101095.06;;;16.16
25985;BMP280;66753;53.848;10.658;2023-04-10T18:53:57;101071.94;;;16.01
25985;BMP280;66753;53.848;10.658;2023-04-10T19:08:58;101062.53;;;15.84
25985;BMP280;66753;53.848;10.658;2023-04-10T19:23:58;101050.09;;;15.66
25985;BMP280;66753;53.848;10.658;2023-04-10T19:38:58;101032.41;;;15.58
25985;BMP280;66753;53.848;10.658;2023-04-10T19:53:59;100981.88;;;15.46
25985;BMP280;66753;53.848;10.658;2023-04-10T20:08:59;100964.63;;;15.40
25985;BMP280;66753;53.848;10.658;2023-04-10T20:24:00;100948.91;;;15.35
25985;BMP280;66753;53.848;10.658;2023-04-10T20:39:00;100907.22;;;15.30
25985;BMP280;66753;53.848;10.658;2023-04-10T20:54:01;100863.31;;;15.28
25985;BMP280;66753;53.848;10.658;2023-04-10T21:09:01;100838.09;;;15.25
25985;BMP280;66753;53.848;10.658;2023-04-10T21:24:02;100801.41;;;15.19
25985;BMP280;66753;53.848;10.658;2023-04-10T21:39:03;100760.53;;;15.15
25985;BMP280;66753;53.848;10.658;2023-04-10T21:54:08;100712.78;;;15.06
25985;BMP280;66753;53.848;10.658;2023-04-10T22:09:08;100686.75;;;15.00
25985;BMP280;66753;53.848;10.658;2023-04-10T22:24:09;100683.25;;;14.92
25985;BMP280;66753;53.848;10.658;2023-04-10T22:39:10;100706.03;;;14.86
25985;BMP280;66753;53.848;10.658;2023-04-10T22:54:11;100729.16;;;14.75
25985;BMP280;66753;53.848;10.658;2023-04-10T23:09:11;100750.38;;;14.13
25985;BMP280;66753;53.848;10.658;2023-04-10T23:24:12;100752.66;;;13.69
25985;BMP280;66753;53.848;10.658;2023-04-10T23:39:12;100724.63;;;13.53
25985;BMP280;66753;53.848;10.658;2023-04-10T23:54:13;100712.56;;;13.40
